Time;durP1;ratioP1;P1;durP2;ratioP2;P2;SDS_P1;SDS_P2;PMS_P1;PMS_P2;Temp;Humidity;BMP_temperature;BMP_pressure;BME280_temperature;BME280_humidity;BME280_pressure;Samples;Min_cycle;Max_cycle;Signal;HPM_P1;HPM_P2
2024/01/29 00:02:22;;;;;;;20.50;4.07;;;6.20;1.00;;;;;;5079879;28;20188;-81
2024/01/29 00:04:48;;;;;;;17.67;3.70;;;6.10;1.00;;;;;;5082952;28;20220;-81
2024/01/29 00:07:16;;;;;;;19.37;4.23;;;6.20;1.00;;;;;;5082285;28;20255;-81
2024/01/29 00:09:42;;;;;;;17.70;3.75;;;6.20;1.00;;;;;;5081571;28;20593;-81
2024/01/29 00:12:07;;;;;;;18.70;3.93;;;6.20;1.00;;;;;;5082141;28;20164;-81
2024/01/29 00:14:33;;;;;;;20.07;3.80;;;6.10;1.00;;;;;;5082294;28;20199;-81
2024/01/29 00:17:00;;;;;;;18.60;3.40;;;6.20;1.00;;;;;;5082094;28;20185;-81
2024/01/29 00:19:26;;;;;;;18.23;3.88;;;6.20;1.00;;;;;;5082870;28;20191;-81
2024/01/29 00:21:52;;;;;;;18.60;4.07;;;6.10;1.00;;;;;;5085849;28;20165;-82
2024/01/29 00:24:17;;;;;;;18.90;4.00;;;6.10;1.00;;;;;;5081512;28;20169;-81
2024/01/29 00:26:43;;;;;;;21.27;4.27;;;6.10;1.00;;;;;;5082380;28;20184;-82
2024/01/29 00:29:09;;;;;;;19.83;3.97;;;6.20;1.00;;;;;;5081249;28;20179;-81
2024/01/29 00:31:35;;;;;;;24.73;4.95;;;6.20;1.00;;;;;;5080637;28;20168;-81
2024/01/29 00:34:00;;;;;;;22.47;3.97;;;6.20;1.00;;;;;;5080548;28;20620;-81
2024/01/29 00:36:28;;;;;;;20.70;4.60;;;6.10;1.00;;;;;;5082570;28;20519;-81
2024/01/29 00:38:53;;;;;;;20.60;3.92;;;6.10;1.00;;;;;;5082016;28;20749;-81
2024/01/29 00:41:19;;;;;;;19.10;3.67;;;6.00;1.00;;;;;;5082173;28;20195;-81
2024/01/29 00:43:45;;;;;;;16.90;3.17;;;6.00;1.00;;;;;;5082466;28;20256;-81
2024/01/29 00:46:10;;;;;;;20.13;4.40;;;6.00;1.00;;;;;;5081564;28;20214;-81
2024/01/29 00:48:36;;;;;;;19.83;3.60;;;6.00;1.00;;;;;;5081668;28;20193;-81
2024/01/29 00:51:02;;;;;;;18.30;2.80;;;6.00;1.00;;;;;;5082012;28;20165;-81
2024/01/29 00:53:28;;;;;;;19.33;4.05;;;6.00;1.00;;;;;;5080646;28;20670;-81
2024/01/29 00:55:53;;;;;;;18.33;3.90;;;6.00;1.00;;;;;;5082682;28;20168;-81
2024/01/29 00:58:20;;;;;;;18.80;3.60;;;6.00;1.00;;;;;;5079953;28;20279;-81
2024/01/29 01:00:47;;;;;;;20.92;3.83;;;6.00;1.00;;;;;;5080804;28;20565;-81
2024/01/29 01:03:13;;;;;;;18.52;3.78;;;5.90;1.00;;;;;;5082040;28;20164;-81
2024/01/29 01:05:40;;;;;;;18.00;3.63;;;5.90;1.00;;;;;;5081129;28;20691;-81
2024/01/29 01:08:06;;;;;;;20.30;3.58;;;5.90;1.00;;;;;;5081363;28;20422;-81
2024/01/29 01:10:32;;;;;;;20.33;3.58;;;5.90;1.00;;;;;;5079215;28;20172;-81
2024/01/29 01:12:58;;;;;;;18.73;3.90;;;5.90;1.00;;;;;;5079492;28;20202;-81
2024/01/29 01:15:23;;;;;;;20.53;4.43;;;6.00;1.00;;;;;;5081261;28;20538;-81
2024/01/29 01:17:49;;;;;;;17.17;3.57;;;6.00;1.00;;;;;;5080765;28;20191;-81
2024/01/29 01:20:15;;;;;;;19.27;3.90;;;6.00;1.00;;;;;;5080784;28;20227;-81
2024/01/29 01:22:40;;;;;;;19.90;3.77;;;6.00;1.00;;;;;;5082266;28;20168;-81
2024/01/29 01:25:06;;;;;;;20.73;4.20;;;6.00;1.00;;;;;;5081229;28;20172;-80
2024/01/29 01:27:35;;;;;;;20.40;4.38;;;6.00;1.00;;;;;;5080365;28;20185;-81
2024/01/29 01:30:01;;;;;;;19.17;4.18;;;6.00;1.00;;;;;;5079958;28;20175;-81
2024/01/29 01:32:26;;;;;;;18.73;3.87;;;6.00;1.00;;;;;;5081801;28;20164;-81
2024/01/29 01:34:52;;;;;;;19.87;4.20;;;6.00;1.00;;;;;;5083733;28;20168;-81
2024/01/29 01:37:18;;;;;;;18.00;3.33;;;6.10;1.00;;;;;;5082963;28;20181;-81
2024/01/29 01:39:43;;;;;;;23.40;4.10;;;6.10;1.00;;;;;;5081205;28;20565;-81
2024/01/29 01:42:14;;;;;;;18.87;4.27;;;6.10;1.00;;;;;;5085637;28;20656;-83
2024/01/29 01:44:41;;;;;;;16.88;3.63;;;6.20;1.00;;;;;;5080241;28;20165;-82
2024/01/29 01:47:07;;;;;;;17.07;3.30;;;6.10;1.00;;;;;;5080243;28;20180;-81
2024/01/29 01:49:33;;;;;;;18.92;3.45;;;6.10;1.00;;;;;;5079961;28;20180;-81
2024/01/29 01:51:59;;;;;;;18.30;3.97;;;6.20;1.00;;;;;;5080209;28;20164;-81
2024/01/29 01:54:25;;;;;;;20.57;4.30;;;6.10;1.00;;;;;;5079043;28;20941;-82
2024/01/29 01:56:51;;;;;;;20.27;4.13;;;6.10;1.00;;;;;;5080139;28;20496;-81
2024/01/29 01:59:19;;;;;;;21.37;4.17;;;6.10;1.00;;;;;;5080330;28;20279;-81
2024/01/29 02:01:45;;;;;;;19.23;4.40;;;6.10;1.00;;;;;;5080483;28;20399;-81
2024/01/29 02:04:11;;;;;;;18.48;3.30;;;6.10;1.00;;;;;;5080676;28;20161;-81
2024/01/29 02:06:37;;;;;;;18.50;3.57;;;6.00;1.00;;;;;;5080215;28;20231;-81
2024/01/29 02:09:03;;;;;;;23.70;3.97;;;6.10;1.00;;;;;;5080440;28;20407;-81
2024/01/29 02:11:29;;;;;;;19.00;4.20;;;6.10;1.00;;;;;;5081004;28;20622;-81
2024/01/29 02:13:54;;;;;;;18.13;3.10;;;6.00;1.00;;;;;;5080647;28;20394;-81
2024/01/29 02:16:20;;;;;;;19.10;4.43;;;6.00;1.00;;;;;;5080012;28;20164;-81
2024/01/29 02:18:46;;;;;;;21.77;3.50;;;6.00;1.00;;;;;;5079877;28;20185;-81
2024/01/29 02:21:11;;;;;;;20.17;4.13;;;6.00;1.00;;;;;;5078229;28;20160;-81
2024/01/29 02:23:37;;;;;;;20.23;4.00;;;6.00;1.00;;;;;;5078633;28;20168;-81
2024/01/29 02:26:03;;;;;;;22.37;3.83;;;6.00;1.00;;;;;;5077621;28;20403;-80
2024/01/29 02:28:28;;;;;;;19.80;4.77;;;6.00;1.00;;;;;;5079871;28;20184;-80
2024/01/29 02:30:55;;;;;;;18.60;3.93;;;6.00;1.00;;;;;;5080075;28;20537;-81
2024/01/29 02:33:20;;;;;;;18.48;4.72;;;6.00;1.00;;;;;;5078490;28;20172;-80
2024/01/29 02:35:46;;;;;;;17.97;4.07;;;6.00;1.00;;;;;;5079383;28;20157;-81
2024/01/29 02:38:12;;;;;;;17.63;3.43;;;5.90;1.00;;;;;;5080016;28;20212;-81
2024/01/29 02:40:37;;;;;;;22.20;4.10;;;5.90;1.00;;;;;;5077820;28;20454;-81
2024/01/29 02:43:03;;;;;;;20.60;3.77;;;5.90;1.00;;;;;;5079238;28;20172;-80
2024/01/29 02:45:29;;;;;;;19.88;3.83;;;5.90;1.00;;;;;;5079411;28;20164;-81
2024/01/29 02:47:55;;;;;;;18.20;3.90;;;5.90;1.00;;;;;;5079137;28;20184;-81
2024/01/29 02:50:22;;;;;;;17.77;3.43;;;5.90;1.00;;;;;;5079402;28;20534;-81
2024/01/29 02:52:48;;;;;;;20.08;4.22;;;5.90;1.00;;;;;;5079268;28;20172;-81
2024/01/29 02:55:14;;;;;;;18.30;3.85;;;5.90;1.00;;;;;;5078723;28;20172;-80
2024/01/29 02:57:40;;;;;;;22.30;4.67;;;6.00;1.00;;;;;;5080105;28;20202;-80
2024/01/29 03:00:06;;;;;;;19.30;3.50;;;5.90;1.00;;;;;;5079241;28;20196;-80
2024/01/29 03:02:32;;;;;;;21.35;4.20;;;5.90;1.00;;;;;;5077939;28;20594;-81
2024/01/29 03:04:57;;;;;;;18.87;4.10;;;5.90;1.00;;;;;;5078380;28;20171;-81
2024/01/29 03:07:23;;;;;;;19.60;4.30;;;5.90;1.00;;;;;;5079129;28;20199;-81
2024/01/29 03:09:49;;;;;;;18.70;3.37;;;5.90;1.00;;;;;;5079012;28;20195;-81
2024/01/29 03:12:14;;;;;;;19.40;3.63;;;5.80;1.00;;;;;;5077801;28;20172;-81
2024/01/29 03:14:41;;;;;;;19.17;3.30;;;5.90;1.00;;;;;;5079947;28;20169;-81
2024/01/29 03:17:07;;;;;;;18.20;4.38;;;5.80;1.00;;;;;;5077998;28;20191;-81
2024/01/29 03:19:33;;;;;;;19.73;3.60;;;5.80;1.00;;;;;;5079208;28;20223;-80
2024/01/29 03:21:58;;;;;;;18.33;4.00;;;5.80;1.00;;;;;;5080173;28;20526;-81
2024/01/29 03:24:24;;;;;;;22.30;4.43;;;5.70;1.00;;;;;;5079642;28;20184;-81
2024/01/29 03:26:50;;;;;;;18.50;3.23;;;5.70;1.00;;;;;;5078700;28;20195;-81
2024/01/29 03:29:16;;;;;;;19.40;4.50;;;5.60;1.00;;;;;;5079316;28;20169;-81
2024/01/29 03:31:41;;;;;;;19.50;4.17;;;5.60;1.00;;;;;;5079077;28;20405;-81
2024/01/29 03:34:08;;;;;;;17.97;3.23;;;5.70;1.00;;;;;;5079421;28;20600;-81
2024/01/29 03:36:33;;;;;;;17.30;3.67;;;5.60;1.00;;;;;;5080745;28;20187;-81
2024/01/29 03:38:59;;;;;;;18.40;3.60;;;5.60;1.00;;;;;;5083484;28;20188;-81
2024/01/29 03:41:26;;;;;;;19.83;3.70;;;5.60;1.00;;;;;;5084039;28;20160;-81
2024/01/29 03:43:51;;;;;;;18.63;3.30;;;5.60;1.00;;;;;;5082440;28;20172;-81
2024/01/29 03:46:17;;;;;;;17.60;3.67;;;5.50;1.00;;;;;;5082522;28;20169;-81
2024/01/29 03:48:43;;;;;;;16.97;3.47;;;5.50;1.00;;;;;;5082796;28;20175;-81
2024/01/29 03:51:09;;;;;;;20.30;4.20;;;5.60;1.00;;;;;;5080584;28;20168;-81
2024/01/29 03:53:34;;;;;;;19.10;4.33;;;5.50;1.00;;;;;;5082783;28;20398;-81
2024/01/29 03:56:00;;;;;;;18.23;3.90;;;5.50;1.00;;;;;;5082378;28;20407;-80
2024/01/29 03:58:26;;;;;;;18.60;3.30;;;5.50;1.00;;;;;;5082979;28;20641;-81
2024/01/29 04:00:52;;;;;;;17.57;3.60;;;5.50;1.00;;;;;;5083038;28;20218;-81
2024/01/29 04:03:17;;;;;;;19.50;3.63;;;5.50;1.00;;;;;;5082827;28;20399;-81
2024/01/29 04:05:46;;;;;;;18.17;3.63;;;5.50;1.00;;;;;;5082167;28;20239;-81
2024/01/29 04:08:12;;;;;;;18.67;4.15;;;5.50;1.00;;;;;;5082148;28;20185;-81
2024/01/29 04:10:37;;;;;;;24.33;4.90;;;5.50;1.00;;;;;;5080940;28;20192;-80
2024/01/29 04:13:03;;;;;;;19.37;4.07;;;5.40;1.00;;;;;;5081100;28;20202;-81
2024/01/29 04:15:29;;;;;;;20.33;4.17;;;5.40;1.00;;;;;;5082370;28;20165;-81
2024/01/29 04:17:55;;;;;;;21.17;3.73;;;5.40;1.00;;;;;;5082142;28;20430;-80
2024/01/29 04:20:20;;;;;;;22.57;4.67;;;5.40;1.00;;;;;;5082275;28;20431;-80
2024/01/29 04:22:46;;;;;;;21.43;4.47;;;5.40;1.00;;;;;;5082099;28;20521;-80
2024/01/29 04:25:12;;;;;;;23.80;4.17;;;5.40;1.00;;;;;;5082142;28;20168;-80
2024/01/29 04:27:38;;;;;;;21.75;4.05;;;5.40;1.00;;;;;;5081160;28;20192;-80
2024/01/29 04:30:04;;;;;;;20.80;3.73;;;5.40;1.00;;;;;;5082729;28;20514;-81
2024/01/29 04:32:30;;;;;;;19.90;4.55;;;5.30;1.00;;;;;;5082547;28;20191;-80
2024/01/29 04:34:56;;;;;;;23.73;4.87;;;5.30;1.00;;;;;;5082238;28;20165;-81
2024/01/29 04:37:21;;;;;;;19.03;3.87;;;5.30;1.00;;;;;;5082860;28;20661;-81
2024/01/29 04:39:47;;;;;;;18.60;4.60;;;5.30;1.00;;;;;;5081348;28;20282;-80
2024/01/29 04:42:14;;;;;;;17.40;3.70;;;5.20;1.00;;;;;;5081654;28;20164;-80
2024/01/29 04:44:40;;;;;;;23.23;4.85;;;5.20;1.00;;;;;;5082161;28;20179;-80
2024/01/29 04:47:06;;;;;;;16.80;3.03;;;5.20;1.00;;;;;;5081324;28;20180;-80
2024/01/29 04:49:31;;;;;;;23.83;4.53;;;5.20;1.00;;;;;;5081902;28;20160;-81
2024/01/29 04:51:57;;;;;;;18.73;4.57;;;5.20;1.00;;;;;;5081516;28;20165;-80
2024/01/29 04:54:23;;;;;;;19.83;3.80;;;5.10;1.00;;;;;;5080781;28;20211;-82
2024/01/29 04:56:48;;;;;;;29.60;4.27;;;5.20;1.00;;;;;;5082233;28;20735;-80
2024/01/29 04:59:14;;;;;;;20.73;3.87;;;5.20;1.00;;;;;;5080498;28;20550;-81
2024/01/29 05:01:39;;;;;;;20.63;4.37;;;5.20;1.00;;;;;;5081861;28;20184;-80
2024/01/29 05:04:05;;;;;;;19.97;3.70;;;5.10;1.00;;;;;;5080893;28;20249;-81
2024/01/29 05:06:31;;;;;;;19.27;5.23;;;5.10;1.00;;;;;;5081256;28;20214;-81
2024/01/29 05:08:57;;;;;;;20.73;4.87;;;5.20;1.00;;;;;;5082014;28;20703;-80
2024/01/29 05:11:23;;;;;;;21.87;4.10;;;5.10;1.00;;;;;;5082381;28;20247;-81
2024/01/29 05:13:49;;;;;;;19.30;3.67;;;5.10;1.00;;;;;;5080205;28;20181;-81
2024/01/29 05:16:15;;;;;;;18.70;4.20;;;5.10;1.00;;;;;;5081746;28;20160;-80
2024/01/29 05:18:41;;;;;;;19.35;4.88;;;5.10;1.00;;;;;;5079745;28;20411;-81
2024/01/29 05:21:07;;;;;;;20.60;4.95;;;5.10;1.00;;;;;;5081343;28;20182;-80
2024/01/29 05:23:33;;;;;;;23.60;5.53;;;5.10;1.00;;;;;;5081665;28;20802;-80
2024/01/29 05:25:59;;;;;;;21.45;5.18;;;5.10;1.00;;;;;;5081558;28;20152;-81
2024/01/29 05:28:25;;;;;;;23.60;5.93;;;5.10;1.00;;;;;;5081145;28;20545;-80
2024/01/29 05:30:51;;;;;;;22.03;4.93;;;5.10;1.00;;;;;;5081171;28;20157;-81
2024/01/29 05:33:17;;;;;;;18.77;4.43;;;5.00;1.00;;;;;;5081400;28;20239;-80
2024/01/29 05:35:43;;;;;;;21.80;4.43;;;5.00;1.00;;;;;;5081128;28;20589;-81
2024/01/29 05:38:09;;;;;;;23.23;5.60;;;5.00;1.00;;;;;;5080772;28;20946;-81
2024/01/29 05:40:34;;;;;;;20.57;5.20;;;5.00;1.00;;;;;;5081551;28;20195;-80
2024/01/29 05:43:00;;;;;;;22.43;5.03;;;5.00;1.00;;;;;;5080856;28;20402;-80
2024/01/29 05:45:26;;;;;;;20.83;4.53;;;5.00;1.00;;;;;;5081422;28;20161;-80
2024/01/29 05:47:52;;;;;;;22.47;4.50;;;4.90;1.00;;;;;;5081059;28;20234;-81
2024/01/29 05:50:17;;;;;;;23.80;5.10;;;4.90;1.00;;;;;;5079717;28;20194;-81
2024/01/29 05:52:43;;;;;;;19.40;4.73;;;4.90;2.90;;;;;;5081439;28;20192;-80
2024/01/29 05:55:09;;;;;;;22.25;4.45;;;4.90;2.80;;;;;;5079963;28;20244;-80
2024/01/29 05:57:35;;;;;;;20.37;4.80;;;4.90;3.10;;;;;;5080752;28;20185;-81
2024/01/29 06:00:03;;;;;;;21.10;4.25;;;4.80;4.30;;;;;;5078785;28;20459;-81
2024/01/29 06:02:28;;;;;;;22.65;4.72;;;4.80;5.80;;;;;;5081113;28;20160;-81
2024/01/29 06:04:54;;;;;;;21.60;5.00;;;4.80;8.20;;;;;;5081108;28;20629;-81
2024/01/29 06:07:19;;;;;;;26.23;4.73;;;4.70;8.10;;;;;;5081537;28;20184;-80
2024/01/29 06:09:45;;;;;;;19.83;5.00;;;4.70;10.90;;;;;;5081361;28;20175;-81
2024/01/29 06:12:11;;;;;;;24.10;4.73;;;4.70;10.60;;;;;;5079088;28;20172;-80
2024/01/29 06:14:36;;;;;;;24.97;4.80;;;4.70;13.50;;;;;;5080301;28;20169;-80
2024/01/29 06:17:02;;;;;;;19.10;4.17;;;4.70;14.00;;;;;;5079344;28;20257;-80
2024/01/29 06:19:30;;;;;;;21.90;5.43;;;4.60;16.80;;;;;;5079058;28;20618;-80
2024/01/29 06:21:55;;;;;;;21.52;4.93;;;4.60;19.10;;;;;;5079124;28;20157;-81
2024/01/29 06:24:21;;;;;;;20.67;5.30;;;4.60;20.10;;;;;;5078310;28;20176;-81
2024/01/29 06:26:47;;;;;;;22.03;4.80;;;4.50;23.30;;;;;;5080747;28;20419;-81
2024/01/29 06:29:12;;;;;;;22.77;4.83;;;4.60;25.90;;;;;;5080948;28;20234;-81
2024/01/29 06:31:41;;;;;;;19.60;4.80;;;4.50;27.90;;;;;;5082011;28;20218;-81
2024/01/29 06:34:07;;;;;;;20.23;5.05;;;4.50;31.30;;;;;;5081668;28;20175;-81
2024/01/29 06:36:33;;;;;;;23.00;5.10;;;4.60;29.70;;;;;;5083161;28;20184;-81
2024/01/29 06:38:59;;;;;;;21.63;5.38;;;4.50;31.80;;;;;;5083628;28;20450;-82
2024/01/29 06:41:26;;;;;;;19.23;4.07;;;4.50;34.20;;;;;;5084221;28;20164;-81
2024/01/29 06:43:53;;;;;;;24.02;5.55;;;4.60;34.10;;;;;;5082394;28;20169;-82
2024/01/29 06:46:19;;;;;;;20.15;4.68;;;4.60;31.80;;;;;;5083557;28;20267;-82
2024/01/29 06:48:45;;;;;;;23.83;5.15;;;4.60;31.90;;;;;;5090601;28;20183;-82
2024/01/29 06:51:11;;;;;;;22.67;7.30;;;4.60;30.40;;;;;;5091591;28;20236;-82
2024/01/29 06:53:38;;;;;;;19.80;4.72;;;4.70;32.10;;;;;;5091188;28;20421;-82
2024/01/29 06:56:04;;;;;;;18.85;5.10;;;4.60;35.90;;;;;;5092466;28;20172;-81
2024/01/29 06:58:37;;;;;;;19.80;4.75;;;4.60;39.60;;;;;;5092142;28;20207;-82
2024/01/29 07:01:04;;;;;;;22.70;5.55;;;4.60;38.60;;;;;;5092104;28;20243;-82
2024/01/29 07:03:29;;;;;;;22.45;4.45;;;4.60;44.50;;;;;;5091613;28;20153;-81
2024/01/29 07:05:56;;;;;;;20.33;4.80;;;4.60;44.40;;;;;;5087983;28;20232;-81
2024/01/29 07:08:22;;;;;;;20.88;4.75;;;4.60;47.10;;;;;;5084774;28;20211;-81
2024/01/29 07:10:48;;;;;;;21.87;5.43;;;4.60;53.00;;;;;;5080486;28;20172;-80
2024/01/29 07:13:14;;;;;;;20.07;5.20;;;4.60;50.60;;;;;;5081162;28;20411;-82
2024/01/29 07:15:41;;;;;;;24.03;5.30;;;4.60;54.00;;;;;;5081125;28;20169;-80
2024/01/29 07:18:06;;;;;;;22.58;5.35;;;4.60;56.50;;;;;;5081155;28;20268;-81
2024/01/29 07:20:38;;;;;;;21.03;5.63;;;4.60;55.00;;;;;;5079220;28;20216;-81
2024/01/29 07:23:08;;;;;;;20.05;5.00;;;4.60;57.80;;;;;;5080257;28;20149;-81
2024/01/29 07:25:39;;;;;;;23.40;6.45;;;4.60;59.10;;;;;;5083147;28;20169;-81
2024/01/29 07:28:06;;;;;;;25.67;5.40;;;4.60;59.30;;;;;;5082370;28;20184;-81
2024/01/29 07:30:32;;;;;;;28.38;5.85;;;4.70;57.60;;;;;;5084277;28;20228;-81
2024/01/29 07:32:58;;;;;;;22.55;6.13;;;4.70;56.50;;;;;;5084566;28;20168;-82
2024/01/29 07:35:24;;;;;;;26.88;7.43;;;4.70;57.50;;;;;;5085123;28;20165;-81
2024/01/29 07:37:51;;;;;;;22.52;5.38;;;4.70;61.50;;;;;;5084687;28;20184;-81
2024/01/29 07:40:17;;;;;;;23.30;5.97;;;4.70;57.30;;;;;;5084439;28;20198;-81
2024/01/29 07:42:43;;;;;;;23.92;6.30;;;4.60;59.00;;;;;;5085790;28;20252;-81
2024/01/29 07:45:09;;;;;;;26.10;7.60;;;4.60;63.30;;;;;;5084949;28;20161;-82
2024/01/29 07:47:34;;;;;;;19.90;5.83;;;4.60;65.90;;;;;;5088555;28;20183;-82
2024/01/29 07:50:01;;;;;;;21.20;6.20;;;4.50;67.70;;;;;;5090849;28;20262;-82
2024/01/29 07:52:27;;;;;;;33.92;6.28;;;4.60;65.90;;;;;;5090691;28;20165;-82
2024/01/29 07:54:52;;;;;;;27.27;6.20;;;4.60;70.70;;;;;;5091052;28;20168;-82
2024/01/29 07:57:18;;;;;;;20.00;6.00;;;4.60;70.50;;;;;;5090682;28;20206;-83
2024/01/29 07:59:45;;;;;;;20.70;6.67;;;4.60;72.00;;;;;;5091936;28;20204;-83
2024/01/29 08:02:11;;;;;;;22.15;5.70;;;4.60;70.80;;;;;;5091845;28;20243;-82
2024/01/29 08:04:37;;;;;;;24.00;6.13;;;4.60;73.10;;;;;;5091673;28;20187;-83
2024/01/29 08:07:03;;;;;;;21.03;5.10;;;4.60;74.00;;;;;;5091823;28;20453;-82
2024/01/29 08:09:28;;;;;;;26.10;6.90;;;4.60;73.20;;;;;;5092037;28;20161;-82
2024/01/29 08:11:54;;;;;;;21.40;6.30;;;4.70;71.80;;;;;;5091547;28;20180;-82
2024/01/29 08:14:21;;;;;;;19.45;5.28;;;4.70;73.50;;;;;;5091908;28;20173;-82
2024/01/29 08:16:47;;;;;;;26.52;6.35;;;4.70;74.80;;;;;;5091832;28;20183;-82
2024/01/29 08:19:12;;;;;;;21.15;6.05;;;4.70;73.40;;;;;;5091181;28;20215;-82
2024/01/29 08:21:38;;;;;;;28.60;6.40;;;4.70;74.10;;;;;;5090864;28;20160;-82
2024/01/29 08:24:04;;;;;;;23.50;6.07;;;4.80;74.40;;;;;;5092885;28;20210;-82
2024/01/29 08:26:30;;;;;;;22.38;5.90;;;4.80;75.20;;;;;;5094551;28;20168;-82
2024/01/29 08:28:57;;;;;;;22.53;5.00;;;4.80;78.30;;;;;;5094719;28;20165;-82
2024/01/29 08:31:23;;;;;;;25.73;5.72;;;4.90;77.50;;;;;;5094241;28;20414;-82
2024/01/29 08:33:49;;;;;;;25.00;6.07;;;4.90;80.00;;;;;;5094789;28;20232;-83
2024/01/29 08:36:15;;;;;;;22.92;5.90;;;4.90;79.60;;;;;;5094827;28;20159;-82
2024/01/29 08:38:42;;;;;;;20.83;5.53;;;5.00;81.40;;;;;;5094780;28;20164;-82
2024/01/29 08:41:08;;;;;;;22.42;6.38;;;5.10;80.40;;;;;;5094773;28;20827;-82
2024/01/29 08:43:34;;;;;;;20.15;4.80;;;5.10;81.40;;;;;;5091113;28;20164;-80
2024/01/29 08:46:00;;;;;;;23.63;6.30;;;5.20;81.90;;;;;;5086566;28;20235;-81
2024/01/29 08:48:25;;;;;;;20.97;5.73;;;5.30;79.30;;;;;;5088665;28;20190;-81
2024/01/29 08:50:51;;;;;;;22.63;6.43;;;5.40;74.90;;;;;;5088808;28;20200;-82
2024/01/29 08:53:17;;;;;;;27.93;6.07;;;5.50;71.90;;;;;;5089010;28;20164;-80
2024/01/29 08:55:42;;;;;;;25.73;6.60;;;5.60;65.20;;;;;;5089504;28;20250;-82
2024/01/29 08:58:08;;;;;;;19.50;5.13;;;5.60;63.60;;;;;;5089214;28;20248;-81
2024/01/29 09:00:34;;;;;;;21.10;5.20;;;5.70;59.60;;;;;;5089700;28;20191;-82
2024/01/29 09:02:59;;;;;;;21.57;6.83;;;5.70;60.40;;;;;;5087641;28;20588;-81
2024/01/29 09:05:25;;;;;;;34.20;6.27;;;5.80;57.50;;;;;;5088638;28;20186;-81
2024/01/29 09:07:51;;;;;;;24.97;6.70;;;5.80;56.00;;;;;;5088862;28;20176;-81
2024/01/29 09:10:17;;;;;;;21.65;5.93;;;5.90;54.60;;;;;;5089476;28;20161;-81
2024/01/29 09:12:43;;;;;;;25.27;6.20;;;6.00;52.20;;;;;;5088841;28;20194;-82
2024/01/29 09:15:09;;;;;;;28.10;6.10;;;6.10;51.50;;;;;;5088455;28;20169;-82
2024/01/29 09:17:36;;;;;;;22.77;5.93;;;6.10;49.60;;;;;;5090296;28;20192;-82
2024/01/29 09:20:06;;;;;;;26.48;5.80;;;6.10;45.80;;;;;;5092794;28;20627;-82
2024/01/29 09:22:32;;;;;;;22.77;5.75;;;6.20;44.80;;;;;;5093394;28;20160;-82
2024/01/29 09:24:58;;;;;;;21.93;6.00;;;6.30;41.80;;;;;;5093199;28;20171;-83
2024/01/29 09:27:24;;;;;;;22.80;6.10;;;6.30;39.90;;;;;;5093096;28;20453;-83
2024/01/29 09:29:49;;;;;;;22.00;6.47;;;6.30;37.50;;;;;;5092815;28;20168;-82
2024/01/29 09:32:15;;;;;;;21.27;6.20;;;6.40;36.00;;;;;;5092611;28;20198;-82
2024/01/29 09:34:41;;;;;;;22.90;6.40;;;6.40;34.20;;;;;;5092302;28;20176;-82
2024/01/29 09:37:06;;;;;;;28.40;6.33;;;6.50;34.10;;;;;;5093212;28;20422;-83
2024/01/29 09:39:32;;;;;;;22.33;6.53;;;6.60;30.70;;;;;;5093135;28;20196;-82
2024/01/29 09:42:09;;;;;;;23.07;6.90;;;6.70;25.40;;;;;;5093014;28;20232;-82
2024/01/29 09:44:39;;;;;;;22.02;6.20;;;6.80;26.60;;;;;;5093375;28;20168;-82
2024/01/29 09:47:06;;;;;;;25.90;7.40;;;6.90;24.70;;;;;;5092637;28;20176;-82
2024/01/29 09:49:34;;;;;;;24.88;6.72;;;6.90;22.60;;;;;;5092959;28;20183;-82
2024/01/29 09:52:04;;;;;;;23.13;7.10;;;7.00;21.20;;;;;;5093404;28;20169;-81
2024/01/29 09:54:31;;;;;;;23.70;6.18;;;7.20;17.40;;;;;;5090182;28;20171;-82
2024/01/29 09:56:56;;;;;;;23.98;6.63;;;7.30;14.30;;;;;;5089529;28;20557;-82
2024/01/29 09:59:22;;;;;;;28.30;7.07;;;7.40;11.30;;;;;;5089428;28;20200;-81
2024/01/29 10:01:49;;;;;;;21.85;5.22;;;7.60;4.00;;;;;;5090605;28;20171;-81
2024/01/29 10:04:15;;;;;;;22.55;6.20;;;7.70;1.00;;;;;;5090378;28;20164;-82
2024/01/29 10:06:41;;;;;;;22.70;6.50;;;7.80;1.00;;;;;;5088941;28;20188;-82
2024/01/29 10:09:08;;;;;;;24.03;6.03;;;7.90;1.00;;;;;;5089378;28;20258;-82
2024/01/29 10:11:36;;;;;;;25.35;6.70;;;8.00;1.00;;;;;;5089363;28;20509;-82
2024/01/29 10:14:02;;;;;;;20.73;5.63;;;8.00;1.00;;;;;;5089362;28;20190;-82
2024/01/29 10:16:28;;;;;;;21.48;5.72;;;8.00;1.00;;;;;;5088733;28;20232;-82
2024/01/29 10:18:58;;;;;;;19.70;5.18;;;8.10;1.00;;;;;;5089542;28;20274;-81
2024/01/29 10:21:24;;;;;;;19.83;6.25;;;8.20;1.00;;;;;;5088603;28;20186;-82
2024/01/29 10:23:57;;;;;;;22.10;5.30;;;8.30;1.00;;;;;;5088675;28;20231;-82
2024/01/29 10:26:23;;;;;;;19.83;5.72;;;8.40;1.00;;;;;;5093133;28;20391;-82
2024/01/29 10:29:06;;;;;;;21.52;5.63;;;8.50;1.00;;;;;;5092130;28;20168;-82
2024/01/29 10:31:32;;;;;;;21.42;5.20;;;8.60;1.00;;;;;;5092888;28;20156;-82
2024/01/29 10:34:02;;;;;;;22.10;4.97;;;8.70;1.00;;;;;;5092479;28;20168;-83
2024/01/29 10:36:28;;;;;;;21.92;5.47;;;8.70;1.00;;;;;;5088324;28;20244;-81
2024/01/29 10:38:54;;;;;;;19.00;4.57;;;8.80;1.00;;;;;;5090864;28;20188;-83
2024/01/29 10:41:21;;;;;;;19.63;4.90;;;8.90;1.00;;;;;;5092082;28;20144;-82
2024/01/29 10:43:48;;;;;;;26.15;5.95;;;9.00;1.00;;;;;;5091223;28;20429;-82
2024/01/29 10:46:21;;;;;;;22.35;5.40;;;9.10;1.00;;;;;;5089223;28;20161;-82
2024/01/29 10:48:48;;;;;;;21.70;4.95;;;9.20;1.00;;;;;;5092739;28;20148;-83
2024/01/29 10:51:14;;;;;;;19.35;5.18;;;9.30;1.00;;;;;;5090276;28;20171;-82
2024/01/29 10:53:44;;;;;;;22.60;4.80;;;9.30;1.00;;;;;;5086795;28;20629;-83
2024/01/29 10:56:11;;;;;;;20.73;4.57;;;9.40;1.00;;;;;;5091939;28;20159;-83
2024/01/29 10:58:38;;;;;;;22.15;5.32;;;9.60;1.00;;;;;;5091911;28;20204;-83
2024/01/29 11:01:05;;;;;;;18.73;4.78;;;9.70;1.00;;;;;;5092677;28;20164;-83
2024/01/29 11:03:34;;;;;;;18.35;5.03;;;9.70;1.00;;;;;;5092655;28;20156;-83
2024/01/29 11:06:04;;;;;;;24.25;4.60;;;9.80;1.00;;;;;;5092246;28;20157;-83
2024/01/29 11:08:33;;;;;;;23.88;5.32;;;9.80;1.00;;;;;;5091654;28;20248;-83
2024/01/29 11:11:01;;;;;;;24.88;5.28;;;9.90;1.00;;;;;;5092386;28;20175;-83
2024/01/29 11:13:29;;;;;;;20.08;5.22;;;9.90;1.00;;;;;;5092530;28;20168;-83
2024/01/29 11:15:55;;;;;;;21.63;5.45;;;10.10;1.00;;;;;;5092313;28;20172;-83
2024/01/29 11:18:21;;;;;;;21.00;5.03;;;10.30;1.00;;;;;;5092360;28;20271;-83
2024/01/29 11:20:55;;;;;;;22.10;5.53;;;10.30;1.00;;;;;;5092790;28;20433;-83
2024/01/29 11:23:22;;;;;;;22.55;4.90;;;10.40;1.00;;;;;;5091970;28;20145;-83
2024/01/29 11:25:49;;;;;;;20.85;4.43;;;10.50;1.00;;;;;;5092419;28;20181;-83
2024/01/29 11:28:18;;;;;;;21.20;5.30;;;10.50;1.00;;;;;;5092448;28;20175;-83
2024/01/29 11:30:50;;;;;;;32.92;6.57;;;10.60;1.00;;;;;;5091968;28;20281;-83
2024/01/29 11:33:18;;;;;;;21.77;5.05;;;10.60;1.00;;;;;;5091911;28;20234;-83
2024/01/29 11:35:56;;;;;;;21.00;5.22;;;10.70;1.00;;;;;;5092274;28;20164;-83
2024/01/29 11:38:25;;;;;;;21.83;5.97;;;10.70;1.00;;;;;;5092253;28;20198;-83
2024/01/29 11:40:51;;;;;;;20.35;5.28;;;10.80;1.00;;;;;;5092617;28;20184;-83
2024/01/29 11:43:18;;;;;;;18.93;4.60;;;10.80;1.00;;;;;;5090876;28;20327;-83
2024/01/29 11:45:49;;;;;;;25.13;4.75;;;10.90;1.00;;;;;;5092543;28;20394;-83
2024/01/29 11:48:16;;;;;;;21.42;4.80;;;11.00;1.00;;;;;;5091714;28;20183;-83
2024/01/29 11:50:45;;;;;;;23.05;5.40;;;11.00;1.00;;;;;;5091897;28;20164;-83
2024/01/29 11:53:25;;;;;;;20.60;4.70;;;11.10;1.00;;;;;;5090999;28;20183;-83
2024/01/29 11:55:51;;;;;;;19.33;4.72;;;11.10;1.00;;;;;;5090933;28;20161;-83
2024/01/29 11:58:22;;;;;;;21.73;5.30;;;11.30;1.00;;;;;;5092293;28;20253;-83
2024/01/29 12:00:49;;;;;;;19.58;4.85;;;11.40;1.00;;;;;;5095835;28;20244;-83
2024/01/29 12:03:23;;;;;;;19.88;5.97;;;11.50;1.00;;;;;;5095210;28;20157;-83
2024/01/29 12:05:51;;;;;;;18.85;4.35;;;11.50;1.00;;;;;;5095394;28;20152;-83
2024/01/29 12:08:19;;;;;;;26.08;4.47;;;11.50;1.00;;;;;;5094400;28;20255;-83
2024/01/29 12:10:46;;;;;;;18.38;4.22;;;11.60;1.00;;;;;;5095504;28;20537;-83
2024/01/29 12:13:16;;;;;;;23.20;5.30;;;11.60;1.00;;;;;;5095478;28;20248;-83
2024/01/29 12:15:42;;;;;;;19.85;5.70;;;11.60;1.00;;;;;;5095129;28;20707;-83
2024/01/29 12:18:33;;;;;;;21.67;5.75;;;11.60;1.00;;;;;;5094715;28;20698;-83
2024/01/29 12:20:59;;;;;;;22.70;5.75;;;11.50;1.00;;;;;;5093302;28;20190;-83
2024/01/29 12:23:24;;;;;;;25.10;5.40;;;11.50;1.00;;;;;;5095447;28;20184;-83
2024/01/29 12:25:54;;;;;;;19.53;5.27;;;11.50;1.00;;;;;;5095324;28;20470;-83
2024/01/29 12:28:21;;;;;;;25.13;5.05;;;11.50;1.00;;;;;;5095573;28;20184;-83
2024/01/29 12:30:55;;;;;;;19.75;4.65;;;11.50;1.00;;;;;;5094478;28;20164;-83
2024/01/29 12:33:31;;;;;;;23.95;5.38;;;11.50;1.00;;;;;;5095070;28;20164;-83
2024/01/29 12:36:14;;;;;;;19.95;4.85;;;11.40;1.00;;;;;;5093301;28;20161;-83
2024/01/29 12:38:40;;;;;;;28.70;5.43;;;11.40;1.00;;;;;;5094300;28;20169;-83
2024/01/29 12:41:06;;;;;;;23.67;5.68;;;11.40;1.00;;;;;;5094602;28;20168;-83
2024/01/29 12:43:32;;;;;;;24.17;6.15;;;11.40;1.00;;;;;;5093223;28;20148;-83
2024/01/29 12:46:12;;;;;;;19.57;4.93;;;11.40;1.00;;;;;;5094380;28;20156;-83
2024/01/29 12:48:38;;;;;;;21.23;5.45;;;11.40;1.00;;;;;;5095168;28;20164;-83
2024/01/29 12:51:05;;;;;;;18.65;4.50;;;11.40;1.00;;;;;;5094207;28;20172;-83